createdAt,value
2022-09-17T00:03:00.748Z,14.30
2022-09-17T00:06:06.709Z,14.30
2022-09-17T00:09:10.481Z,14.20
2022-09-17T00:12:14.738Z,14.20
2022-09-17T00:15:18.255Z,14.20
2022-09-17T00:18:21.138Z,14.20
2022-09-17T00:21:24.454Z,14.20
2022-09-17T00:24:27.293Z,14.20
2022-09-17T00:27:31.565Z,14.20
2022-09-17T00:30:34.644Z,14.20
2022-09-17T00:33:37.885Z,14.20
2022-09-17T00:36:41.296Z,14.10
2022-09-17T00:39:44.119Z,14.10
2022-09-17T00:42:48.796Z,14.20
2022-09-17T00:45:53.378Z,14.20
2022-09-17T00:48:57.337Z,14.20
2022-09-17T00:52:06.148Z,14.20
2022-09-17T00:55:17.712Z,14.20
2022-09-17T00:58:23.686Z,14.10
2022-09-17T01:01:26.684Z,14.10
2022-09-17T01:04:29.659Z,14.10
2022-09-17T01:07:58.854Z,14.10
2022-09-17T01:11:16.048Z,14.10
2022-09-17T01:14:34.643Z,14.00
2022-09-17T01:17:46.158Z,14.10
2022-09-17T01:21:25.255Z,14.20
2022-09-17T01:24:47.658Z,14.20
2022-09-17T01:28:26.527Z,14.20
2022-09-17T01:31:41.464Z,14.10
2022-09-17T01:34:53.896Z,14.10
2022-09-17T01:38:03.240Z,14.10
2022-09-17T01:41:13.277Z,14.20
2022-09-17T01:44:23.754Z,14.10
2022-09-17T01:47:32.936Z,14.10
2022-09-17T01:50:41.649Z,14.00
2022-09-17T01:53:51.433Z,14.00
2022-09-17T01:56:59.088Z,13.90
2022-09-17T02:00:05.701Z,14.00
2022-09-17T02:03:14.474Z,13.90
2022-09-17T02:06:22.677Z,13.90
2022-09-17T02:09:31.322Z,14.00
2022-09-17T02:12:38.930Z,14.10
2022-09-17T02:15:44.849Z,14.00
2022-09-17T02:18:55.621Z,13.90
2022-09-17T02:22:04.078Z,14.00
2022-09-17T02:25:11.551Z,13.90
2022-09-17T02:28:20.635Z,13.90
2022-09-17T02:31:23.816Z,14.00
2022-09-17T02:34:29.462Z,14.00
2022-09-17T02:37:32.317Z,13.90
2022-09-17T02:40:42.227Z,14.00
2022-09-17T02:43:56.282Z,14.00
2022-09-17T02:47:14.539Z,13.80
2022-09-17T02:50:31.430Z,13.80
2022-09-17T02:53:40.646Z,13.70
2022-09-17T02:56:52.052Z,13.70
2022-09-17T03:00:05.449Z,13.70
2022-09-17T03:03:13.688Z,13.70
2022-09-17T03:06:18.656Z,13.60
2022-09-17T03:09:21.479Z,13.60
2022-09-17T03:12:24.810Z,13.60
2022-09-17T03:15:28.342Z,13.60
2022-09-17T03:18:31.175Z,13.50
2022-09-17T03:21:35.345Z,13.60
2022-09-17T03:24:38.179Z,13.60
2022-09-17T03:27:41.093Z,13.50
2022-09-17T03:30:44.725Z,13.50
2022-09-17T03:33:47.553Z,13.50
2022-09-17T03:36:51.724Z,13.40
2022-09-17T03:39:54.614Z,13.40
2022-09-17T03:42:57.483Z,13.50
2022-09-17T03:46:01.064Z,13.50
2022-09-17T03:49:04.668Z,13.50
2022-09-17T03:52:08.859Z,13.50
2022-09-17T03:55:12.161Z,13.40
2022-09-17T03:58:15.008Z,13.50
2022-09-17T04:01:18.093Z,13.50
2022-09-17T04:04:20.953Z,13.50
2022-09-17T04:07:25.235Z,13.40
2022-09-17T04:10:29.248Z,13.40
2022-09-17T04:13:32.078Z,13.40
2022-09-17T04:16:34.989Z,13.30
2022-09-17T04:19:37.870Z,13.30
2022-09-17T04:22:42.776Z,13.30
2022-09-17T04:25:45.657Z,13.30
2022-09-17T04:28:48.518Z,13.30
2022-09-17T04:31:51.583Z,13.30
2022-09-17T04:34:54.449Z,13.30
2022-09-17T04:37:59.467Z,13.20
2022-09-17T04:41:02.403Z,13.30
2022-09-17T04:44:05.310Z,13.30
2022-09-17T04:47:08.298Z,13.30
2022-09-17T04:50:11.869Z,13.30
2022-09-17T04:53:16.027Z,13.30
2022-09-17T04:56:18.943Z,13.10
2022-09-17T04:59:21.987Z,13.20
2022-09-17T05:02:24.916Z,13.20
2022-09-17T05:05:27.853Z,13.10
2022-09-17T05:08:32.100Z,13.20
2022-09-17T05:11:35.240Z,13.10
2022-09-17T05:14:38.070Z,13.00
2022-09-17T05:17:40.869Z,13.00
2022-09-17T05:20:44.398Z,13.00
2022-09-17T05:23:48.816Z,13.00
2022-09-17T05:26:51.640Z,13.00
2022-09-17T05:29:54.478Z,13.10
2022-09-17T05:33:01.670Z,13.10
2022-09-17T05:36:04.974Z,13.10
2022-09-17T05:39:09.299Z,13.00
2022-09-17T05:42:12.338Z,13.00
2022-09-17T05:45:15.218Z,13.00
2022-09-17T05:48:18.117Z,13.00
2022-09-17T05:51:20.942Z,13.00
2022-09-17T05:54:25.136Z,13.00
2022-09-17T05:57:30.166Z,13.00
2022-09-17T06:00:32.997Z,13.00
2022-09-17T06:03:35.848Z,13.00
2022-09-17T06:06:39.186Z,13.10
2022-09-17T06:09:43.352Z,13.10
2022-09-17T06:12:46.507Z,13.10
2022-09-17T06:15:53.479Z,13.10
2022-09-17T06:18:56.686Z,13.10
2022-09-17T06:21:59.569Z,13.20
2022-09-17T06:25:04.055Z,13.20
2022-09-17T06:28:06.866Z,13.20
2022-09-17T06:31:11.473Z,13.20
2022-09-17T06:34:14.361Z,13.10
2022-09-17T06:37:17.738Z,13.10
2022-09-17T06:40:23.736Z,13.10
2022-09-17T06:46:29.906Z,13.10
2022-09-17T06:49:32.816Z,13.10
2022-09-17T06:52:35.664Z,13.00
2022-09-17T06:55:39.888Z,12.90
2022-09-17T06:58:43.727Z,12.90
2022-09-17T07:01:47.378Z,12.90
2022-09-17T07:04:50.204Z,12.90
2022-09-17T07:07:53.624Z,12.90
2022-09-17T07:10:58.961Z,13.00
2022-09-17T07:14:01.930Z,13.10
2022-09-17T07:17:04.998Z,13.10
2022-09-17T07:20:08.539Z,13.10
2022-09-17T07:23:11.570Z,13.10
2022-09-17T07:26:17.049Z,13.00
2022-09-17T07:32:24.655Z,13.20
2022-09-17T07:35:27.501Z,13.30
2022-09-17T07:38:31.865Z,13.20
2022-09-17T07:41:36.191Z,13.20
2022-09-17T07:44:39.025Z,13.30
2022-09-17T07:47:42.366Z,13.40
2022-09-17T07:50:45.288Z,13.40
2022-09-17T07:53:50.402Z,13.30
2022-09-17T07:56:54.606Z,13.50
2022-09-17T07:59:57.461Z,13.60
2022-09-17T08:03:00.790Z,13.60
2022-09-17T08:06:05.033Z,13.70
2022-09-17T08:09:09.953Z,13.80
2022-09-17T08:12:14.510Z,13.90
2022-09-17T08:15:17.875Z,13.90
2022-09-17T08:18:20.961Z,13.90
2022-09-17T08:21:25.382Z,14.00
2022-09-17T08:24:28.592Z,14.10
2022-09-17T08:27:33.024Z,14.10
2022-09-17T08:30:35.909Z,14.10
2022-09-17T08:33:40.668Z,14.20
2022-09-17T08:36:43.557Z,14.20
2022-09-17T08:39:46.429Z,14.20
2022-09-17T08:42:56.705Z,14.10
2022-09-17T08:46:00.935Z,14.10
2022-09-17T08:49:12.299Z,14.10
2022-09-17T08:53:02.084Z,14.00
2022-09-17T08:56:11.740Z,13.90
2022-09-17T08:59:26.318Z,13.70
2022-09-17T09:02:43.591Z,13.80
2022-09-17T09:05:48.797Z,13.60
2022-09-17T09:08:56.891Z,13.60
2022-09-17T09:12:04.374Z,13.60
2022-09-17T09:15:30.961Z,13.60
2022-09-17T09:18:39.006Z,13.70
2022-09-17T09:21:49.272Z,13.70
2022-09-17T09:25:04.646Z,13.80
2022-09-17T09:28:18.308Z,13.70
2022-09-17T09:31:35.958Z,13.60
2022-09-17T09:34:40.004Z,13.70
2022-09-17T09:37:47.462Z,13.70
2022-09-17T09:40:54.932Z,13.60
2022-09-17T09:44:04.723Z,13.70
2022-09-17T09:47:34.945Z,13.80
2022-09-17T09:51:05.637Z,13.80
2022-09-17T09:54:31.376Z,13.80
2022-09-17T09:57:43.762Z,13.70
2022-09-17T10:00:46.914Z,13.70
2022-09-17T10:03:54.091Z,13.80
2022-09-17T10:07:03.678Z,13.70
2022-09-17T10:10:10.835Z,13.70
2022-09-17T10:13:15.110Z,13.80
2022-09-17T10:16:20.297Z,13.90
2022-09-17T10:19:25.720Z,13.90
2022-09-17T10:22:32.152Z,13.90
2022-09-17T10:25:36.191Z,13.90
2022-09-17T10:28:51.180Z,13.90
2022-09-17T10:31:56.251Z,13.90
2022-09-17T10:35:04.488Z,13.80
2022-09-17T10:38:27.442Z,13.70
2022-09-17T10:41:30.500Z,13.50
2022-09-17T10:44:34.988Z,13.40
2022-09-17T10:47:42.266Z,13.40
2022-09-17T10:50:52.042Z,13.40
2022-09-17T10:54:19.130Z,13.50
2022-09-17T10:57:34.589Z,13.50
2022-09-17T11:00:46.512Z,13.40
2022-09-17T11:04:01.793Z,13.40
2022-09-17T11:07:24.293Z,13.50
2022-09-17T11:10:36.375Z,13.60
2022-09-17T11:13:46.760Z,13.60
2022-09-17T11:17:01.329Z,13.50
2022-09-17T11:20:08.143Z,13.70
2022-09-17T11:23:32.181Z,13.70
2022-09-17T11:26:40.659Z,13.60
2022-09-17T11:30:13.081Z,13.50
2022-09-17T11:33:35.837Z,13.60
2022-09-17T11:36:49.129Z,13.50
2022-09-17T11:39:58.220Z,13.60
2022-09-17T11:43:06.113Z,13.60
2022-09-17T11:46:14.324Z,13.80
2022-09-17T11:49:32.898Z,13.90
2022-09-17T11:52:40.856Z,13.90
2022-09-17T11:55:51.268Z,13.90
2022-09-17T11:58:59.763Z,13.90
2022-09-17T12:02:06.832Z,14.00
2022-09-17T12:05:17.938Z,13.90
2022-09-17T12:08:24.933Z,13.90
2022-09-17T12:11:35.738Z,13.80
2022-09-17T12:14:47.453Z,13.80
2022-09-17T12:18:20.510Z,13.80
2022-09-17T12:21:24.712Z,13.90
2022-09-17T12:24:29.310Z,16.00
2022-09-17T12:27:39.289Z,14.00
2022-09-17T12:30:47.377Z,14.10
2022-09-17T12:33:56.289Z,14.20
2022-09-17T12:37:09.918Z,14.40
2022-09-17T12:40:22.393Z,14.50
2022-09-17T12:43:41.984Z,14.60
2022-09-17T12:46:57.325Z,14.60
2022-09-17T12:50:16.133Z,14.70
2022-09-17T12:53:26.945Z,14.80
2022-09-17T12:56:43.466Z,14.80
2022-09-17T12:59:52.781Z,14.70
2022-09-17T13:03:07.401Z,14.60
2022-09-17T13:06:45.233Z,14.70
2022-09-17T13:10:18.119Z,14.80
2022-09-17T13:13:31.655Z,14.90
2022-09-17T13:16:42.063Z,15.00
2022-09-17T13:19:53.021Z,15.10
2022-09-17T13:22:59.019Z,15.00
2022-09-17T13:26:05.256Z,15.00
2022-09-17T13:29:10.031Z,15.00
2022-09-17T13:32:43.422Z,14.80
2022-09-17T13:35:50.790Z,14.90
2022-09-17T13:38:53.728Z,14.70
2022-09-17T13:42:03.655Z,14.60
2022-09-17T13:45:13.257Z,14.30
2022-09-17T13:48:22.165Z,14.50
2022-09-17T13:51:58.400Z,14.40
2022-09-17T13:55:02.321Z,14.40
2022-09-17T13:58:08.606Z,14.70
2022-09-17T14:01:14.689Z,14.90
2022-09-17T14:04:35.257Z,15.30
2022-09-17T14:07:49.043Z,15.50
2022-09-17T14:10:52.771Z,15.90
2022-09-17T14:13:56.974Z,16.30
2022-09-17T14:16:59.983Z,16.30
2022-09-17T14:20:05.517Z,16.40
2022-09-17T14:23:13.296Z,16.30
2022-09-17T14:26:28.657Z,16.20
2022-09-17T14:29:47.080Z,16.10
2022-09-17T14:32:59.272Z,16.00
2022-09-17T14:36:11.647Z,15.90
2022-09-17T14:39:21.600Z,15.80
2022-09-17T14:42:29.944Z,15.80
2022-09-17T14:45:37.826Z,15.70
2022-09-17T14:48:40.736Z,15.70
2022-09-17T14:51:45.451Z,15.40
2022-09-17T14:54:48.610Z,15.40
2022-09-17T14:57:54.088Z,15.50
2022-09-17T15:00:57.401Z,15.40
2022-09-17T15:04:21.070Z,15.30
2022-09-17T15:07:26.285Z,15.00
2022-09-17T15:10:29.142Z,15.10
2022-09-17T15:13:36.080Z,14.90
2022-09-17T15:16:39.449Z,14.70
2022-09-17T15:19:45.106Z,14.60
2022-09-17T15:22:56.522Z,14.30
2022-09-17T15:26:02.446Z,14.30
2022-09-17T15:29:06.668Z,14.30
2022-09-17T15:32:12.769Z,14.30
2022-09-17T15:35:24.478Z,14.40
2022-09-17T15:38:30.400Z,14.40
2022-09-17T15:41:35.079Z,14.30
2022-09-17T15:44:39.719Z,14.30
2022-09-17T15:47:52.992Z,14.30
2022-09-17T15:50:57.171Z,14.20
2022-09-17T15:54:04.875Z,14.10
2022-09-17T15:57:14.976Z,14.10
2022-09-17T16:00:20.145Z,14.00
2022-09-17T16:04:05.329Z,13.90
2022-09-17T16:07:30.760Z,13.70
2022-09-17T16:10:35.159Z,13.70
2022-09-17T16:13:38.166Z,13.80
2022-09-17T16:16:41.085Z,13.80
2022-09-17T16:19:44.116Z,13.80
2022-09-17T16:22:48.241Z,13.80
2022-09-17T16:25:53.269Z,13.70
2022-09-17T16:29:00.552Z,13.70
2022-09-17T16:32:03.813Z,13.80
2022-09-17T16:35:07.234Z,13.70
2022-09-17T16:38:11.664Z,13.70
2022-09-17T16:41:16.087Z,13.70
2022-09-17T16:44:19.106Z,13.70
2022-09-17T16:47:22.240Z,13.70
2022-09-17T16:50:25.174Z,13.60
2022-09-17T16:53:28.126Z,13.40
2022-09-17T16:56:32.418Z,13.40
2022-09-17T16:59:35.332Z,13.40
2022-09-17T17:02:38.307Z,13.40
2022-09-17T17:05:41.697Z,13.60
2022-09-17T17:08:44.697Z,13.50
2022-09-17T17:11:48.998Z,13.50
2022-09-17T17:14:53.497Z,13.40
2022-09-17T17:17:56.364Z,13.30
2022-09-17T17:21:06.355Z,13.30
2022-09-17T17:24:09.265Z,13.30
2022-09-17T17:27:14.497Z,13.10
2022-09-17T17:30:18.267Z,13.20
2022-09-17T17:33:21.144Z,13.10
2022-09-17T17:36:23.984Z,12.90
2022-09-17T17:39:27.129Z,12.70
2022-09-17T17:42:37.144Z,12.50
2022-09-17T17:45:40.650Z,12.50
2022-09-17T17:48:43.949Z,12.50
2022-09-17T17:51:46.977Z,12.60
2022-09-17T17:54:50.278Z,12.50
2022-09-17T17:58:01.317Z,12.30
2022-09-17T18:01:12.204Z,12.10
2022-09-17T18:04:15.052Z,12.20
2022-09-17T18:07:18.002Z,12.20
2022-09-17T18:10:21.193Z,12.30
2022-09-17T18:13:25.636Z,12.20
2022-09-17T18:16:29.248Z,12.30
2022-09-17T18:19:32.129Z,12.30
2022-09-17T18:22:35.071Z,12.20
2022-09-17T18:25:38.112Z,12.20
2022-09-17T18:28:42.996Z,12.20
2022-09-17T18:31:45.975Z,12.20
2022-09-17T18:34:51.162Z,12.00
2022-09-17T18:37:54.677Z,12.10
2022-09-17T18:40:58.071Z,12.20
2022-09-17T18:44:02.573Z,12.00
2022-09-17T18:47:05.565Z,12.10
2022-09-17T18:50:09.451Z,12.10
2022-09-17T18:53:12.904Z,12.20
2022-09-17T18:56:17.796Z,12.20
2022-09-17T18:59:21.984Z,12.20
2022-09-17T19:02:25.062Z,12.30
2022-09-17T19:05:28.795Z,12.10
2022-09-17T19:08:31.796Z,11.80
2022-09-17T19:11:36.392Z,11.80
2022-09-17T19:14:40.710Z,11.90
2022-09-17T19:17:43.566Z,12.00
2022-09-17T19:20:46.661Z,12.10
2022-09-17T19:23:50.822Z,12.10
2022-09-17T19:26:54.232Z,11.90
2022-09-17T19:30:00.310Z,11.90
2022-09-17T19:33:03.163Z,12.10
2022-09-17T19:36:08.904Z,12.10
2022-09-17T19:39:11.945Z,12.10
2022-09-17T19:42:15.495Z,12.00
2022-09-17T19:45:19.981Z,11.80
2022-09-17T19:48:25.282Z,11.70
2022-09-17T19:51:29.581Z,11.70
2022-09-17T19:54:32.701Z,11.90
2022-09-17T19:57:35.555Z,11.80
2022-09-17T20:00:40.231Z,11.80
2022-09-17T20:03:45.019Z,11.70
2022-09-17T20:06:47.989Z,11.60
2022-09-17T20:09:50.865Z,11.70
2022-09-17T20:12:53.739Z,11.90
2022-09-17T20:16:04.545Z,12.00
2022-09-17T20:19:08.243Z,12.00
2022-09-17T20:22:11.339Z,12.10
2022-09-17T20:25:14.225Z,12.20
2022-09-17T20:28:17.074Z,12.10
2022-09-17T20:31:23.559Z,12.00
2022-09-17T20:34:26.697Z,11.90
2022-09-17T20:38:16.095Z,11.80
2022-09-17T20:40:52.926Z,11.60
2022-09-17T20:43:56.207Z,11.60
2022-09-17T20:47:01.827Z,11.60
2022-09-17T20:50:05.237Z,11.70
2022-09-17T20:53:08.488Z,11.80
2022-09-17T20:56:13.227Z,12.00
2022-09-17T20:59:18.628Z,12.10
2022-09-17T21:02:25.431Z,12.20
2022-09-17T21:05:28.318Z,12.10
2022-09-17T21:08:31.366Z,12.00
2022-09-17T21:11:35.699Z,12.00
2022-09-17T21:14:39.048Z,11.90
2022-09-17T21:17:45.338Z,12.00
2022-09-17T21:20:48.217Z,12.10
2022-09-17T21:23:52.516Z,12.20
2022-09-17T21:26:55.394Z,12.00
2022-09-17T21:29:58.267Z,12.10
2022-09-17T21:33:02.866Z,11.90
2022-09-17T21:36:07.588Z,11.90
2022-09-17T21:39:13.735Z,11.90
2022-09-17T21:42:16.574Z,11.80
2022-09-17T21:45:19.491Z,11.70
2022-09-17T21:48:23.705Z,11.80
2022-09-17T21:51:30.638Z,11.70
2022-09-17T21:54:33.601Z,11.80
2022-09-17T21:57:36.681Z,11.70
2022-09-17T22:00:39.480Z,11.50
2022-09-17T22:03:44.544Z,11.40
2022-09-17T22:06:48.968Z,11.50
2022-09-17T22:09:51.810Z,11.60
2022-09-17T22:12:54.807Z,11.70
2022-09-17T22:15:58.751Z,11.70
2022-09-17T22:19:04.135Z,11.80
2022-09-17T22:22:06.995Z,11.80
2022-09-17T22:25:10.608Z,11.70
2022-09-17T22:28:21.315Z,11.70
2022-09-17T22:31:24.688Z,11.80
2022-09-17T22:34:29.708Z,11.90
2022-09-17T22:37:32.661Z,11.80
2022-09-17T22:40:37.084Z,11.80
2022-09-17T22:43:40.075Z,11.80
2022-09-17T22:46:43.574Z,11.80
2022-09-17T22:49:47.802Z,11.90
2022-09-17T22:52:50.665Z,11.90
2022-09-17T22:55:57.559Z,11.80
2022-09-17T22:59:00.871Z,11.70
2022-09-17T23:02:03.818Z,11.50
2022-09-17T23:05:08.521Z,11.40
2022-09-17T23:08:11.377Z,11.40
2022-09-17T23:11:18.985Z,11.30
2022-09-17T23:14:21.834Z,11.20
2022-09-17T23:17:29.213Z,11.20
2022-09-17T23:20:34.034Z,11.20
2022-09-17T23:23:37.911Z,11.20
2022-09-17T23:26:40.758Z,11.10
2022-09-17T23:29:43.625Z,11.20
2022-09-17T23:32:46.465Z,11.20
2022-09-17T23:35:50.652Z,11.20
2022-09-17T23:38:55.533Z,11.20
2022-09-17T23:41:58.459Z,10.90
2022-09-17T23:45:02.076Z,10.90
2022-09-17T23:48:04.992Z,10.80
2022-09-17T23:51:10.083Z,10.90
2022-09-17T23:54:13.111Z,11.00
2022-09-17T23:57:15.998Z,10.90
